createdAt,value
2018-02-23T00:02:09.207Z,56.23
2018-02-23T00:04:36.927Z,57.60
2018-02-23T00:07:04.565Z,55.20
2018-02-23T00:09:32.243Z,61.37
2018-02-23T00:11:59.917Z,59.13
2018-02-23T00:14:27.549Z,52.40
2018-02-23T00:16:55.224Z,60.70
2018-02-23T00:19:23.016Z,58.43
2018-02-23T00:21:51.430Z,53.90
2018-02-23T00:24:19.117Z,53.13
2018-02-23T00:26:46.793Z,62.97
2018-02-23T00:29:14.520Z,66.07
2018-02-23T00:31:42.186Z,60.23
2018-02-23T00:34:09.856Z,64.43
2018-02-23T00:36:37.523Z,61.70
2018-02-23T00:39:05.260Z,59.33
2018-02-23T00:41:32.935Z,58.37
2018-02-23T00:44:00.664Z,57.90
2018-02-23T00:46:28.367Z,68.03
2018-02-23T00:48:56.042Z,60.37
2018-02-23T00:51:23.732Z,65.37
2018-02-23T00:53:52.160Z,57.40
2018-02-23T00:56:19.864Z,55.20
2018-02-23T00:58:48.286Z,59.83
2018-02-23T01:01:16.029Z,64.00
2018-02-23T01:03:43.702Z,57.80
2018-02-23T01:06:11.364Z,60.83
2018-02-23T01:08:39.047Z,52.53
2018-02-23T01:11:06.699Z,64.67
2018-02-23T01:13:34.333Z,59.80
2018-02-23T01:16:02.000Z,62.73
2018-02-23T01:18:29.762Z,60.90
2018-02-23T01:20:57.454Z,63.43
2018-02-23T01:23:25.196Z,59.77
2018-02-23T01:25:53.637Z,65.63
2018-02-23T01:28:21.307Z,55.70
2018-02-23T01:30:48.960Z,73.53
2018-02-23T01:33:17.400Z,59.87
2018-02-23T01:35:45.122Z,67.63
2018-02-23T01:38:12.924Z,66.40
2018-02-23T01:40:40.602Z,62.77
2018-02-23T01:43:08.288Z,63.97
2018-02-23T01:45:35.987Z,75.80
2018-02-23T01:48:03.701Z,56.83
2018-02-23T01:53:30.968Z,68.40
2018-02-23T01:55:59.404Z,71.83
2018-02-23T01:58:27.074Z,60.67
2018-02-23T02:00:54.702Z,69.60
2018-02-23T02:03:22.417Z,70.30
2018-02-23T02:05:50.139Z,72.87
2018-02-23T02:08:17.819Z,62.20
2018-02-23T02:10:45.491Z,72.10
2018-02-23T02:13:13.160Z,68.03
2018-02-23T02:15:41.668Z,66.83
2018-02-23T02:18:09.328Z,63.53
2018-02-23T02:20:37.021Z,66.50
2018-02-23T02:23:04.648Z,69.53
2018-02-23T02:25:32.299Z,71.27
2018-02-23T02:28:00.740Z,64.30
2018-02-23T02:30:28.398Z,71.00
2018-02-23T02:32:56.091Z,77.53
2018-02-23T02:35:24.688Z,63.17
2018-02-23T02:37:53.088Z,68.90
2018-02-23T02:40:20.769Z,72.90
2018-02-23T02:42:48.468Z,67.07
2018-02-23T02:45:16.404Z,62.63
2018-02-23T02:47:44.055Z,65.47
2018-02-23T02:50:11.780Z,75.97
2018-02-23T02:52:39.404Z,83.17
2018-02-23T02:55:07.842Z,73.90
2018-02-23T02:57:35.576Z,73.17
2018-02-23T03:00:03.247Z,72.13
2018-02-23T03:02:30.965Z,73.30
2018-02-23T03:04:58.676Z,63.10
2018-02-23T03:07:26.316Z,75.40
2018-02-23T03:09:54.004Z,62.87
2018-02-23T03:12:21.732Z,69.80
2018-02-23T03:14:50.135Z,66.27
2018-02-23T03:17:17.836Z,61.97
2018-02-23T03:19:45.516Z,63.53
2018-02-23T03:22:13.189Z,66.47
2018-02-23T03:24:41.626Z,77.87
2018-02-23T03:27:09.367Z,66.60
2018-02-23T03:29:37.018Z,74.53
2018-02-23T03:32:04.747Z,67.83
2018-02-23T03:34:32.436Z,74.53
2018-02-23T03:37:00.111Z,73.77
2018-02-23T03:39:27.885Z,65.30
2018-02-23T03:41:55.552Z,63.00
2018-02-23T03:44:23.239Z,67.27
2018-02-23T03:46:50.964Z,65.10
2018-02-23T03:49:18.630Z,66.23
2018-02-23T03:51:46.282Z,65.73
2018-02-23T03:54:13.963Z,70.20
2018-02-23T03:56:41.667Z,65.47
2018-02-23T03:59:10.056Z,65.47
2018-02-23T04:01:37.745Z,70.47
2018-02-23T04:04:05.421Z,66.23
2018-02-23T04:06:33.072Z,80.33
2018-02-23T04:09:00.762Z,74.20
2018-02-23T04:11:28.467Z,83.63
2018-02-23T04:13:56.091Z,68.33
2018-02-23T04:16:23.797Z,72.37
2018-02-23T04:18:51.442Z,72.60
2018-02-23T04:21:19.085Z,78.50
2018-02-23T04:23:47.519Z,75.60
2018-02-23T04:26:15.205Z,76.60
2018-02-23T04:28:42.885Z,72.53
2018-02-23T04:31:11.442Z,69.80
2018-02-23T04:33:39.119Z,74.00
2018-02-23T04:36:07.559Z,82.60
2018-02-23T04:38:35.215Z,78.33
2018-02-23T04:41:02.885Z,76.27
2018-02-23T04:43:30.533Z,71.70
2018-02-23T04:45:58.210Z,83.87
2018-02-23T04:48:25.887Z,75.87
2018-02-23T04:50:54.314Z,68.20
2018-02-23T04:53:23.165Z,70.60
2018-02-23T04:55:51.600Z,72.63
2018-02-23T04:58:19.247Z,72.50
2018-02-23T05:00:47.000Z,67.67
2018-02-23T05:03:14.639Z,74.57
2018-02-23T05:05:42.304Z,73.67
2018-02-23T05:08:09.983Z,68.47
2018-02-23T05:10:37.684Z,68.40
2018-02-23T05:13:05.337Z,70.07
2018-02-23T05:15:33.024Z,62.77
2018-02-23T05:18:01.464Z,61.83
2018-02-23T05:20:29.103Z,67.20
2018-02-23T05:22:56.792Z,59.50
2018-02-23T05:25:24.471Z,69.47
2018-02-23T05:27:52.101Z,69.23
2018-02-23T05:30:19.789Z,66.90
2018-02-23T05:32:47.477Z,76.00
2018-02-23T05:35:15.884Z,79.60
2018-02-23T05:37:43.621Z,69.80
2018-02-23T05:40:12.095Z,68.13
2018-02-23T05:42:40.511Z,74.90
2018-02-23T05:45:08.224Z,71.10
2018-02-23T05:47:36.701Z,76.87
2018-02-23T05:50:04.349Z,83.30
2018-02-23T05:52:32.110Z,75.77
2018-02-23T05:54:59.776Z,77.30
2018-02-23T05:57:27.408Z,77.30
2018-02-23T05:59:55.162Z,77.13
2018-02-23T06:02:22.838Z,74.23
2018-02-23T06:04:50.484Z,73.07
2018-02-23T06:07:18.137Z,76.70
2018-02-23T06:09:45.803Z,75.53
2018-02-23T06:12:13.447Z,74.20
2018-02-23T06:14:41.128Z,65.30
2018-02-23T06:17:14.401Z,73.13
2018-02-23T06:22:45.841Z,65.03
2018-02-23T06:25:14.288Z,71.23
2018-02-23T06:27:41.959Z,68.90
2018-02-23T06:30:09.636Z,70.23
2018-02-23T06:32:38.104Z,73.03
2018-02-23T06:35:05.796Z,73.07
2018-02-23T06:37:33.533Z,64.03
2018-02-23T06:40:01.971Z,72.93
2018-02-23T06:42:29.660Z,69.37
2018-02-23T06:44:57.389Z,76.10
2018-02-23T06:47:25.421Z,80.23
2018-02-23T06:49:53.103Z,85.57
2018-02-23T06:52:20.748Z,73.87
2018-02-23T06:54:48.420Z,70.83
2018-02-23T06:57:16.124Z,66.10
2018-02-23T06:59:43.777Z,80.30
2018-02-23T07:02:11.427Z,72.23
2018-02-23T07:04:39.138Z,79.37
2018-02-23T07:07:07.545Z,66.13
2018-02-23T07:09:35.224Z,73.77
2018-02-23T07:12:02.921Z,76.87
2018-02-23T07:14:30.740Z,72.40
2018-02-23T07:16:58.400Z,66.30
2018-02-23T07:19:26.855Z,71.33
2018-02-23T07:21:54.596Z,66.40
2018-02-23T07:24:23.019Z,69.13
2018-02-23T07:26:50.688Z,70.77
2018-02-23T07:29:18.427Z,77.20
2018-02-23T07:31:46.106Z,65.73
2018-02-23T07:34:15.043Z,61.77
2018-02-23T07:36:43.656Z,70.87
2018-02-23T07:39:11.356Z,59.83
2018-02-23T07:41:39.037Z,73.53
2018-02-23T07:44:06.820Z,69.07
2018-02-23T07:46:35.252Z,59.83
2018-02-23T07:49:02.927Z,62.63
2018-02-23T07:51:30.644Z,75.90
2018-02-23T07:53:58.304Z,72.83
2018-02-23T07:56:26.034Z,69.93
2018-02-23T07:58:54.532Z,66.90
2018-02-23T08:01:22.206Z,59.90
2018-02-23T08:03:49.895Z,65.53
2018-02-23T08:06:17.617Z,67.87
2018-02-23T08:08:45.304Z,67.00
2018-02-23T08:11:13.067Z,66.43
2018-02-23T08:13:41.660Z,61.83
2018-02-23T08:16:09.431Z,67.13
2018-02-23T08:18:37.117Z,59.73
2018-02-23T08:21:04.775Z,66.27
2018-02-23T08:23:32.531Z,66.70
2018-02-23T08:26:00.211Z,66.60
2018-02-23T08:28:28.626Z,61.33
2018-02-23T08:30:56.460Z,62.57
2018-02-23T08:33:24.919Z,66.33
2018-02-23T08:35:52.588Z,64.80
2018-02-23T08:38:21.019Z,60.67
2018-02-23T08:40:48.724Z,71.17
2018-02-23T08:43:17.135Z,63.60
2018-02-23T08:45:44.832Z,61.17
2018-02-23T08:48:12.625Z,62.73
2018-02-23T08:50:41.129Z,59.67
2018-02-23T08:53:09.195Z,58.07
2018-02-23T08:55:36.850Z,67.47
2018-02-23T08:58:05.317Z,61.37
2018-02-23T09:00:44.869Z,65.27
2018-02-23T09:03:12.563Z,58.20
2018-02-23T09:05:40.234Z,60.13
2018-02-23T09:08:07.961Z,61.50
2018-02-23T09:10:35.666Z,60.47
2018-02-23T09:13:03.344Z,67.43
2018-02-23T09:15:31.011Z,68.03
2018-02-23T09:17:58.676Z,59.90
2018-02-23T09:20:26.309Z,61.60
2018-02-23T09:22:54.001Z,56.73
2018-02-23T09:25:22.424Z,63.20
2018-02-23T09:27:50.063Z,59.83
2018-02-23T09:30:17.758Z,60.23
2018-02-23T09:32:45.409Z,61.33
2018-02-23T09:35:13.064Z,59.40
2018-02-23T09:37:40.748Z,66.70
2018-02-23T09:40:08.449Z,61.10
2018-02-23T09:42:36.834Z,59.90
2018-02-23T09:45:05.336Z,67.10
2018-02-23T09:47:33.756Z,55.47
2018-02-23T09:50:01.459Z,67.60
2018-02-23T09:52:29.155Z,62.63
2018-02-23T09:54:56.867Z,73.23
2018-02-23T09:57:25.276Z,58.40
2018-02-23T09:59:52.938Z,52.50
2018-02-23T10:02:20.672Z,58.93
2018-02-23T10:04:49.064Z,63.17
2018-02-23T10:07:16.735Z,56.10
2018-02-23T10:09:44.397Z,58.80
2018-02-23T10:12:12.057Z,66.53
2018-02-23T10:14:39.719Z,62.50
2018-02-23T10:17:07.407Z,57.33
2018-02-23T10:19:35.028Z,53.30
2018-02-23T10:22:02.705Z,53.70
2018-02-23T10:24:30.367Z,56.90
2018-02-23T10:26:58.050Z,51.00
2018-02-23T10:29:25.703Z,58.77
2018-02-23T10:31:53.469Z,63.83
2018-02-23T10:34:21.097Z,52.27
2018-02-23T10:36:48.788Z,72.33
2018-02-23T10:39:16.509Z,55.77
2018-02-23T10:41:44.180Z,56.47
2018-02-23T10:44:11.880Z,59.50
2018-02-23T10:46:39.641Z,62.77
2018-02-23T10:49:07.340Z,59.23
2018-02-23T10:51:35.900Z,67.40
2018-02-23T10:54:03.617Z,68.80
2018-02-23T10:56:31.258Z,58.70
2018-02-23T10:58:58.964Z,56.47
2018-02-23T11:01:26.673Z,53.13
2018-02-23T11:03:55.076Z,54.97
2018-02-23T11:06:22.739Z,52.83
2018-02-23T11:08:50.393Z,56.03
2018-02-23T11:11:18.075Z,54.27
2018-02-23T11:13:45.784Z,55.40
2018-02-23T11:16:14.213Z,56.93
2018-02-23T11:18:41.845Z,65.43
2018-02-23T11:21:09.514Z,57.20
2018-02-23T11:23:37.404Z,56.43
2018-02-23T11:26:05.045Z,68.17
2018-02-23T11:28:32.722Z,70.40
2018-02-23T11:31:00.430Z,64.53
2018-02-23T11:33:28.836Z,55.13
2018-02-23T11:35:56.506Z,54.87
2018-02-23T11:38:24.368Z,55.60
2018-02-23T11:40:52.005Z,63.53
2018-02-23T11:43:19.675Z,60.73
2018-02-23T11:45:47.394Z,60.27
2018-02-23T11:48:15.039Z,52.80
2018-02-23T11:50:42.723Z,55.10
2018-02-23T11:53:11.166Z,63.97
2018-02-23T11:55:38.813Z,55.47
2018-02-23T11:58:07.364Z,58.53
2018-02-23T12:00:35.052Z,50.17
2018-02-23T12:03:02.671Z,49.60
2018-02-23T12:05:31.107Z,57.10
2018-02-23T12:07:58.790Z,57.60
2018-02-23T12:10:26.472Z,57.33
2018-02-23T12:12:54.901Z,54.27
2018-02-23T12:15:22.566Z,60.60
2018-02-23T12:17:50.206Z,59.00
2018-02-23T12:20:17.937Z,56.50
2018-02-23T12:22:46.377Z,56.80
2018-02-23T12:25:14.021Z,50.90
2018-02-23T12:27:51.928Z,56.27
2018-02-23T12:30:20.090Z,48.13
2018-02-23T12:32:47.757Z,59.27
2018-02-23T12:35:15.400Z,57.97
2018-02-23T12:37:43.057Z,46.60
2018-02-23T12:40:10.709Z,50.53
2018-02-23T12:42:38.605Z,52.00
2018-02-23T12:45:06.277Z,55.43
2018-02-23T12:47:33.909Z,53.37
2018-02-23T12:50:02.339Z,63.20
2018-02-23T12:52:30.771Z,48.80
2018-02-23T12:54:58.425Z,49.80
2018-02-23T12:57:26.114Z,56.13
2018-02-23T12:59:53.800Z,55.93
2018-02-23T13:02:22.222Z,53.60
2018-02-23T13:04:49.914Z,52.50
2018-02-23T13:07:17.581Z,60.87
2018-02-23T13:09:45.216Z,53.67
2018-02-23T13:12:12.874Z,48.10
2018-02-23T13:17:42.395Z,53.57
2018-02-23T13:20:10.057Z,58.13
2018-02-23T13:22:37.715Z,54.83
2018-02-23T13:25:05.415Z,62.27
2018-02-23T13:27:33.086Z,60.93
2018-02-23T13:30:01.480Z,52.10
2018-02-23T13:32:29.210Z,55.67
2018-02-23T13:34:56.851Z,52.53
2018-02-23T13:37:24.494Z,59.47
2018-02-23T13:39:55.006Z,52.50
2018-02-23T13:42:23.473Z,59.10
2018-02-23T13:44:51.115Z,56.00
2018-02-23T13:47:19.585Z,59.20
2018-02-23T13:49:48.019Z,58.63
2018-02-23T13:52:15.648Z,56.93
2018-02-23T13:54:43.362Z,66.27
2018-02-23T13:57:11.035Z,56.20
2018-02-23T13:59:39.834Z,57.23
2018-02-23T14:02:08.424Z,53.20
2018-02-23T14:04:36.582Z,56.90
2018-02-23T14:10:09.312Z,52.07
2018-02-23T14:12:36.972Z,56.83
2018-02-23T14:15:04.691Z,51.50
2018-02-23T14:17:32.456Z,58.43
2018-02-23T14:20:00.128Z,56.73
2018-02-23T14:22:28.942Z,58.67
2018-02-23T14:24:56.880Z,54.70
2018-02-23T14:27:25.795Z,50.80
2018-02-23T14:29:54.087Z,49.53
2018-02-23T14:32:23.145Z,51.23
2018-02-23T14:34:51.164Z,51.17
2018-02-23T14:37:19.520Z,52.70
2018-02-23T14:39:47.609Z,56.40
2018-02-23T14:42:16.383Z,52.00
2018-02-23T14:44:44.488Z,51.33
2018-02-23T14:47:12.501Z,56.03
2018-02-23T14:49:51.985Z,50.67
2018-02-23T14:52:19.667Z,55.50
2018-02-23T14:54:47.309Z,56.90
2018-02-23T14:57:14.972Z,51.57
2018-02-23T14:59:42.684Z,54.53
2018-02-23T15:02:10.387Z,47.70
2018-02-23T15:04:38.049Z,50.20
2018-02-23T15:07:05.723Z,61.50
2018-02-23T15:09:33.359Z,56.83
2018-02-23T15:12:01.031Z,55.73
2018-02-23T15:14:28.698Z,57.63
2018-02-23T15:16:56.350Z,55.40
2018-02-23T15:19:24.010Z,58.00
2018-02-23T15:21:51.702Z,49.50
2018-02-23T15:24:20.124Z,55.53
2018-02-23T15:26:47.804Z,57.33
2018-02-23T15:29:15.516Z,50.53
2018-02-23T15:34:43.852Z,47.93
2018-02-23T15:37:11.519Z,44.57
2018-02-23T15:39:43.789Z,51.00
2018-02-23T15:42:12.547Z,53.33
2018-02-23T15:44:41.070Z,44.30
2018-02-23T15:47:09.654Z,63.47
2018-02-23T15:49:40.199Z,51.97
2018-02-23T15:52:13.852Z,56.80
2018-02-23T15:54:42.164Z,57.77
2018-02-23T16:00:16.126Z,49.97
2018-02-23T16:02:44.816Z,49.63
2018-02-23T16:05:13.449Z,55.27
2018-02-23T16:07:41.814Z,51.27
2018-02-23T16:10:10.231Z,45.57
2018-02-23T16:12:39.321Z,46.57
2018-02-23T16:15:08.725Z,43.47
2018-02-23T16:17:37.822Z,52.70
2018-02-23T16:20:07.233Z,54.40
2018-02-23T16:22:35.538Z,53.70
2018-02-23T16:25:03.983Z,44.80
2018-02-23T16:27:32.242Z,49.03
2018-02-23T16:29:59.951Z,44.87
2018-02-23T16:32:27.760Z,49.07
2018-02-23T16:34:55.397Z,50.23
2018-02-23T16:37:23.056Z,53.03
2018-02-23T16:39:50.713Z,56.00
2018-02-23T16:42:18.336Z,49.63
2018-02-23T16:44:45.996Z,48.47
2018-02-23T16:47:13.684Z,48.17
2018-02-23T16:49:41.321Z,49.70
2018-02-23T16:52:09.012Z,48.87
2018-02-23T16:54:36.742Z,55.60
2018-02-23T16:57:04.373Z,52.73
2018-02-23T16:59:32.862Z,49.30
2018-02-23T17:02:02.740Z,52.83
2018-02-23T17:04:31.368Z,56.37
2018-02-23T17:07:01.061Z,51.50
2018-02-23T17:09:29.660Z,53.37
2018-02-23T17:11:58.260Z,53.47
2018-02-23T17:14:53.193Z,51.23
2018-02-23T17:17:22.062Z,56.00
2018-02-23T17:24:27.947Z,49.67
2018-02-23T17:26:57.814Z,57.77
2018-02-23T17:29:31.286Z,45.53
2018-02-23T17:32:00.836Z,49.33
2018-02-23T17:34:29.385Z,54.63
2018-02-23T17:37:02.599Z,46.50
2018-02-23T17:39:32.014Z,48.20
2018-02-23T17:42:02.832Z,52.73
2018-02-23T17:44:30.961Z,48.23
2018-02-23T17:47:26.607Z,53.20
2018-02-23T17:50:09.495Z,53.17
2018-02-23T17:52:37.671Z,55.63
2018-02-23T17:55:06.427Z,53.43
2018-02-23T17:57:34.468Z,55.07
2018-02-23T18:00:02.653Z,51.70
2018-02-23T18:02:30.278Z,52.87
2018-02-23T18:04:57.993Z,55.67
2018-02-23T18:07:25.672Z,52.77
2018-02-23T18:09:53.336Z,51.83
2018-02-23T18:12:20.999Z,53.90
2018-02-23T18:14:49.568Z,51.83
2018-02-23T18:17:17.258Z,50.67
2018-02-23T18:19:45.706Z,49.93
2018-02-23T18:22:13.663Z,64.37
2018-02-23T18:24:42.085Z,60.53
2018-02-23T18:27:10.524Z,54.77
2018-02-23T18:29:38.265Z,56.20
2018-02-23T18:32:05.901Z,59.13
2018-02-23T18:34:33.575Z,52.00
2018-02-23T18:37:01.227Z,57.20
2018-02-23T18:39:28.930Z,59.40
2018-02-23T18:41:56.616Z,55.07
2018-02-23T18:44:24.297Z,62.97
2018-02-23T18:46:51.928Z,58.00
2018-02-23T18:49:20.542Z,65.33
2018-02-23T18:51:48.215Z,53.73
2018-02-23T18:54:15.879Z,53.90
2018-02-23T18:56:43.579Z,62.20
2018-02-23T18:59:11.286Z,62.70
2018-02-23T19:01:39.046Z,58.00
2018-02-23T19:04:06.981Z,63.53
2018-02-23T19:06:35.803Z,56.70
2018-02-23T19:09:03.896Z,62.77
2018-02-23T19:11:31.948Z,60.10
2018-02-23T19:13:59.951Z,59.43
2018-02-23T19:16:27.794Z,67.20
2018-02-23T19:18:55.898Z,87.17
2018-02-23T19:21:23.665Z,59.20
2018-02-23T19:23:51.391Z,66.70
2018-02-23T19:26:19.064Z,60.47
2018-02-23T19:28:47.034Z,59.20
2018-02-23T19:31:14.811Z,61.40
2018-02-23T19:33:42.535Z,72.93
2018-02-23T19:36:10.270Z,59.70
2018-02-23T19:38:38.073Z,64.20
2018-02-23T19:41:05.854Z,63.37
2018-02-23T19:43:33.686Z,66.83
2018-02-23T19:46:01.621Z,64.07
2018-02-23T19:48:30.228Z,60.60
2018-02-23T19:50:58.141Z,70.93
2018-02-23T19:53:25.909Z,64.03
2018-02-23T19:55:54.610Z,74.70
2018-02-23T19:58:22.431Z,70.33
2018-02-23T20:00:50.083Z,67.33
2018-02-23T20:03:17.824Z,66.57
2018-02-23T20:05:45.582Z,61.70
2018-02-23T20:08:13.365Z,63.37
2018-02-23T20:10:41.154Z,74.30
2018-02-23T20:13:08.907Z,74.10
2018-02-23T20:15:37.456Z,58.50
2018-02-23T20:18:05.242Z,70.40
2018-02-23T20:20:32.988Z,124.13
2018-02-23T20:23:00.661Z,73.93
2018-02-23T20:25:28.384Z,78.73
2018-02-23T20:27:57.011Z,71.50
2018-02-23T20:30:25.389Z,77.37
2018-02-23T20:32:53.200Z,66.37
2018-02-23T20:35:21.905Z,68.33
2018-02-23T20:37:49.688Z,64.33
2018-02-23T20:40:17.381Z,72.23
2018-02-23T20:42:45.877Z,66.47
2018-02-23T20:45:13.551Z,66.80
2018-02-23T20:47:42.062Z,72.90
2018-02-23T20:50:09.771Z,61.13
2018-02-23T20:52:37.420Z,63.70
2018-02-23T20:55:05.465Z,60.10
2018-02-23T20:57:33.261Z,63.50
2018-02-23T21:00:01.071Z,67.77
2018-02-23T21:02:29.783Z,59.03
2018-02-23T21:04:57.687Z,64.10
2018-02-23T21:07:26.312Z,56.63
2018-02-23T21:09:54.143Z,61.77
2018-02-23T21:12:22.127Z,62.63
2018-02-23T21:14:49.885Z,65.33
2018-02-23T21:17:17.707Z,57.50
2018-02-23T21:19:45.367Z,54.80
2018-02-23T21:22:13.024Z,59.53
2018-02-23T21:24:40.733Z,57.83
2018-02-23T21:27:08.424Z,61.07
2018-02-23T21:29:36.176Z,59.33
2018-02-23T21:32:03.872Z,57.83
2018-02-23T21:34:31.639Z,60.20
2018-02-23T21:36:59.278Z,57.77
2018-02-23T21:39:26.940Z,57.50
2018-02-23T21:41:55.453Z,60.60
2018-02-23T21:44:23.163Z,56.60
2018-02-23T21:46:50.831Z,65.53
2018-02-23T21:49:18.635Z,50.50
2018-02-23T21:51:46.378Z,55.37
2018-02-23T21:54:14.312Z,57.50
2018-02-23T21:56:42.199Z,50.70
2018-02-23T21:59:10.292Z,54.13
2018-02-23T22:01:38.338Z,50.57
2018-02-23T22:04:06.255Z,59.47
2018-02-23T22:06:34.722Z,56.33
2018-02-23T22:09:03.589Z,57.40
2018-02-23T22:11:31.500Z,58.97
2018-02-23T22:13:59.396Z,55.63
2018-02-23T22:16:28.078Z,52.83
2018-02-23T22:18:55.824Z,57.10
2018-02-23T22:21:23.534Z,48.67
2018-02-23T22:23:51.510Z,47.63
2018-02-23T22:26:19.367Z,58.17
2018-02-23T22:28:47.248Z,50.90
2018-02-23T22:31:15.866Z,55.90
2018-02-23T22:33:43.793Z,56.10
2018-02-23T22:36:12.434Z,48.70
2018-02-23T22:38:40.215Z,53.83
2018-02-23T22:41:08.382Z,57.10
2018-02-23T22:43:36.008Z,49.60
2018-02-23T22:46:03.748Z,49.77
2018-02-23T22:48:31.587Z,57.37
2018-02-23T22:50:59.235Z,50.67
2018-02-23T22:53:27.012Z,50.63
2018-02-23T22:55:55.595Z,54.83
2018-02-23T22:58:23.234Z,53.97
2018-02-23T23:00:51.131Z,52.10
2018-02-23T23:03:19.839Z,49.03
2018-02-23T23:05:47.629Z,56.30
2018-02-23T23:08:15.656Z,48.00
2018-02-23T23:10:44.096Z,54.50
2018-02-23T23:13:11.739Z,49.57
2018-02-23T23:15:39.408Z,55.37
2018-02-23T23:18:07.191Z,50.50
2018-02-23T23:20:34.838Z,46.83
2018-02-23T23:23:02.601Z,53.23
2018-02-23T23:25:30.278Z,48.70
2018-02-23T23:27:57.956Z,54.90
2018-02-23T23:30:26.396Z,48.80
2018-02-23T23:32:54.077Z,51.37
2018-02-23T23:35:21.754Z,54.27
2018-02-23T23:37:50.188Z,58.97
2018-02-23T23:40:17.874Z,51.60
2018-02-23T23:42:45.510Z,48.03
2018-02-23T23:45:13.224Z,55.40
2018-02-23T23:47:40.927Z,64.20
2018-02-23T23:50:08.612Z,57.77
2018-02-23T23:52:36.303Z,59.80
2018-02-23T23:55:04.772Z,57.97
2018-02-23T23:57:33.172Z,65.83
